createdAt,value
2022-08-30T00:01:24.248Z,17.6
2022-08-30T00:03:00.573Z,17.7
2022-08-30T00:04:36.902Z,17.7
2022-08-30T00:06:13.226Z,17.7
2022-08-30T00:07:49.562Z,17.7
2022-08-30T00:09:25.883Z,17.7
2022-08-30T00:11:02.222Z,17.6
2022-08-30T00:12:38.554Z,17.6
2022-08-30T00:14:14.886Z,17.6
2022-08-30T00:15:51.209Z,17.6
2022-08-30T00:17:27.552Z,17.6
2022-08-30T00:19:03.878Z,17.6
2022-08-30T00:20:39.224Z,17.6
2022-08-30T00:22:15.554Z,17.6
2022-08-30T00:23:51.913Z,17.6
2022-08-30T00:25:28.218Z,17.6
2022-08-30T00:27:03.574Z,17.6
2022-08-30T00:28:39.903Z,17.5
2022-08-30T00:30:15.262Z,17.5
2022-08-30T00:31:51.581Z,17.5
2022-08-30T00:33:27.934Z,17.5
2022-08-30T00:35:04.242Z,17.5
2022-08-30T00:36:40.578Z,17.5
2022-08-30T00:38:16.904Z,17.5
2022-08-30T00:39:52.260Z,17.5
2022-08-30T00:41:28.596Z,17.5
2022-08-30T00:43:03.941Z,17.4
2022-08-30T00:44:40.272Z,17.4
2022-08-30T00:46:16.610Z,17.4
2022-08-30T00:47:52.929Z,17.4
2022-08-30T00:49:29.261Z,17.4
2022-08-30T00:51:05.594Z,17.4
2022-08-30T00:52:41.928Z,17.4
2022-08-30T00:54:18.257Z,17.4
2022-08-30T00:55:54.591Z,17.4
2022-08-30T00:57:30.911Z,17.4
2022-08-30T00:59:07.253Z,17.4
2022-08-30T01:00:43.579Z,17.4
2022-08-30T01:02:19.914Z,17.4
2022-08-30T01:03:55.263Z,17.4
2022-08-30T01:05:31.584Z,17.3
2022-08-30T01:07:07.915Z,17.3
2022-08-30T01:08:44.256Z,17.3
2022-08-30T01:10:20.577Z,17.3
2022-08-30T01:11:56.909Z,17.3
2022-08-30T01:13:33.237Z,17.3
2022-08-30T01:15:08.597Z,17.3
2022-08-30T01:16:44.926Z,17.2
2022-08-30T01:18:20.277Z,17.2
2022-08-30T01:19:56.615Z,17.2
2022-08-30T01:21:32.937Z,17.2
2022-08-30T01:23:09.280Z,17.2
2022-08-30T01:24:45.607Z,17.2
2022-08-30T01:26:21.930Z,17.2
2022-08-30T01:27:57.288Z,17.3
2022-08-30T01:29:33.621Z,17.2
2022-08-30T01:31:08.966Z,17.3
2022-08-30T01:32:45.304Z,17.2
2022-08-30T01:34:21.627Z,17.2
2022-08-30T01:35:57.962Z,17.2
2022-08-30T01:37:34.293Z,17.2
2022-08-30T01:39:10.617Z,17.2
2022-08-30T01:40:46.967Z,17.2
2022-08-30T01:42:23.282Z,17.2
2022-08-30T01:43:59.611Z,17.1
2022-08-30T01:45:35.946Z,17.1
2022-08-30T01:47:12.275Z,17.1
2022-08-30T01:48:48.610Z,17.1
2022-08-30T01:50:24.937Z,17.1
2022-08-30T01:52:01.265Z,17.1
2022-08-30T01:53:37.598Z,17.1
2022-08-30T01:55:13.923Z,17.1
2022-08-30T01:56:49.271Z,17.1
2022-08-30T01:58:25.601Z,17.1
2022-08-30T02:00:01.980Z,17.1
2022-08-30T02:01:38.275Z,17.1
2022-08-30T02:03:13.617Z,17.1
2022-08-30T02:04:48.969Z,17.1
2022-08-30T02:06:25.302Z,17.2
2022-08-30T02:08:01.629Z,17.2
2022-08-30T02:09:37.960Z,17.2
2022-08-30T02:11:14.299Z,17.2
2022-08-30T02:12:50.619Z,17.2
2022-08-30T02:14:26.950Z,17.2
2022-08-30T02:16:02.316Z,17.2
2022-08-30T02:17:37.657Z,17.2
2022-08-30T02:19:13.993Z,17.2
2022-08-30T02:20:50.325Z,17.2
2022-08-30T02:22:26.649Z,17.2
2022-08-30T02:24:02.981Z,17.2
2022-08-30T02:25:39.316Z,17.2
2022-08-30T02:27:15.638Z,17.2
2022-08-30T02:28:51.973Z,17.2
2022-08-30T02:30:28.303Z,17.2
2022-08-30T02:32:04.648Z,17.2
2022-08-30T02:33:40.965Z,17.1
2022-08-30T02:35:17.293Z,17.1
2022-08-30T02:36:53.642Z,17.1
2022-08-30T02:38:28.974Z,17
2022-08-30T02:40:05.306Z,17
2022-08-30T02:41:41.635Z,17
2022-08-30T02:43:17.966Z,17
2022-08-30T02:44:54.305Z,16.9
2022-08-30T02:46:30.627Z,16.9
2022-08-30T02:48:06.952Z,16.9
2022-08-30T02:49:42.313Z,16.9
2022-08-30T02:51:17.661Z,16.9
2022-08-30T02:52:53.997Z,16.9
2022-08-30T02:54:30.321Z,16.8
2022-08-30T02:56:06.654Z,16.8
2022-08-30T02:57:42.993Z,16.8
2022-08-30T02:59:19.320Z,16.8
2022-08-30T03:00:55.649Z,16.8
2022-08-30T03:02:31.976Z,16.8
2022-08-30T03:04:07.344Z,16.7
2022-08-30T03:05:42.688Z,16.7
2022-08-30T03:07:19.025Z,16.7
2022-08-30T03:08:55.347Z,16.7
2022-08-30T03:10:31.676Z,16.7
2022-08-30T03:12:08.007Z,16.7
2022-08-30T03:13:44.346Z,16.7
2022-08-30T03:15:20.667Z,16.8
2022-08-30T03:16:56.999Z,16.8
2022-08-30T03:18:33.343Z,16.8
2022-08-30T03:20:09.661Z,16.8
2022-08-30T03:21:45.989Z,16.9
2022-08-30T03:23:22.321Z,16.9
2022-08-30T03:24:58.670Z,16.9
2022-08-30T03:26:33.994Z,16.8
2022-08-30T03:28:10.330Z,16.8
2022-08-30T03:29:46.659Z,16.8
2022-08-30T03:31:22.998Z,16.8
2022-08-30T03:32:59.324Z,16.7
2022-08-30T03:34:35.650Z,16.7
2022-08-30T03:36:11.985Z,16.6
2022-08-30T03:37:47.338Z,16.6
2022-08-30T03:39:22.688Z,16.6
2022-08-30T03:40:59.015Z,16.6
2022-08-30T03:42:35.347Z,16.5
2022-08-30T03:44:10.706Z,16.5
2022-08-30T03:45:47.032Z,16.5
2022-08-30T03:47:23.370Z,16.4
2022-08-30T03:48:58.715Z,16.4
2022-08-30T03:50:35.044Z,16.4
2022-08-30T03:52:11.374Z,16.4
2022-08-30T03:53:47.705Z,16.4
2022-08-30T03:55:24.041Z,16.4
2022-08-30T03:57:00.372Z,16.4
2022-08-30T03:58:36.700Z,16.3
2022-08-30T04:00:13.059Z,16.3
2022-08-30T04:01:49.363Z,16.3
2022-08-30T04:03:25.697Z,16.3
2022-08-30T04:05:02.016Z,16.3
2022-08-30T04:06:38.348Z,16.3
2022-08-30T04:08:14.685Z,16.2
2022-08-30T04:09:51.013Z,16.2
2022-08-30T04:11:26.367Z,16.2
2022-08-30T04:13:02.696Z,16.1
2022-08-30T04:14:39.027Z,16.1
2022-08-30T04:16:15.350Z,16.1
2022-08-30T04:17:51.680Z,16.1
2022-08-30T04:19:28.009Z,16.1
2022-08-30T04:21:04.347Z,16.1
2022-08-30T04:22:40.678Z,16.1
2022-08-30T04:24:17.004Z,16.1
2022-08-30T04:25:53.338Z,16
2022-08-30T04:27:29.676Z,16
2022-08-30T04:29:06.001Z,16
2022-08-30T04:30:42.337Z,16
2022-08-30T04:32:18.658Z,16
2022-08-30T04:33:54.986Z,15.9
2022-08-30T04:35:30.337Z,15.9
2022-08-30T04:37:06.663Z,15.9
2022-08-30T04:38:43.000Z,15.9
2022-08-30T04:40:19.335Z,15.8
2022-08-30T04:41:55.665Z,15.8
2022-08-30T04:43:31.994Z,15.8
2022-08-30T04:45:08.336Z,15.8
2022-08-30T04:46:44.658Z,15.8
2022-08-30T04:48:20.988Z,15.8
2022-08-30T04:49:57.321Z,15.8
2022-08-30T04:51:33.641Z,15.7
2022-08-30T04:53:09.975Z,15.7
2022-08-30T04:54:45.332Z,15.7
2022-08-30T04:56:20.690Z,15.7
2022-08-30T04:57:57.020Z,15.6
2022-08-30T04:59:32.362Z,15.6
2022-08-30T05:01:08.694Z,15.6
2022-08-30T05:02:45.029Z,15.6
2022-08-30T05:04:21.364Z,15.6
2022-08-30T05:05:57.696Z,15.5
2022-08-30T05:07:34.023Z,15.6
2022-08-30T05:09:10.357Z,15.6
2022-08-30T05:10:46.689Z,15.7
2022-08-30T05:12:22.038Z,15.7
2022-08-30T05:13:57.393Z,15.7
2022-08-30T05:15:33.731Z,15.7
2022-08-30T05:17:10.052Z,15.7
2022-08-30T05:18:46.386Z,15.7
2022-08-30T05:20:22.716Z,15.7
2022-08-30T05:21:59.043Z,15.7
2022-08-30T05:23:35.391Z,15.8
2022-08-30T05:25:11.701Z,15.8
2022-08-30T05:26:48.041Z,15.8
2022-08-30T05:28:24.364Z,15.8
2022-08-30T05:30:00.697Z,15.8
2022-08-30T05:31:37.025Z,15.8
2022-08-30T05:33:13.357Z,15.8
2022-08-30T05:34:48.718Z,15.8
2022-08-30T05:36:25.044Z,15.8
2022-08-30T05:38:01.362Z,15.8
2022-08-30T05:39:37.699Z,15.9
2022-08-30T05:41:14.038Z,16
2022-08-30T05:42:50.359Z,16.1
2022-08-30T05:44:26.695Z,16
2022-08-30T05:46:03.017Z,15.9
2022-08-30T05:47:38.385Z,15.9
2022-08-30T05:49:14.714Z,15.9
2022-08-30T05:50:50.054Z,16
2022-08-30T05:52:26.389Z,15.9
2022-08-30T05:54:02.718Z,15.9
2022-08-30T05:55:39.054Z,15.9
2022-08-30T05:57:15.375Z,15.9
2022-08-30T05:58:51.709Z,15.9
2022-08-30T06:00:27.074Z,16.1
2022-08-30T06:02:02.424Z,16
2022-08-30T06:03:38.752Z,15.9
2022-08-30T06:05:15.079Z,15.9
2022-08-30T06:06:51.411Z,15.9
2022-08-30T06:08:27.766Z,15.9
2022-08-30T06:10:04.074Z,16.1
2022-08-30T06:11:40.406Z,16.3
2022-08-30T06:13:16.732Z,16.4
2022-08-30T06:14:53.069Z,16.3
2022-08-30T06:16:29.392Z,16.4
2022-08-30T06:18:05.729Z,16.4
2022-08-30T06:19:42.062Z,16.5
2022-08-30T06:21:18.386Z,16.3
2022-08-30T06:22:53.781Z,16.4
2022-08-30T06:24:30.068Z,16.4
2022-08-30T06:26:06.391Z,16.4
2022-08-30T06:27:42.736Z,16.4
2022-08-30T06:29:19.057Z,16.5
2022-08-30T06:30:55.390Z,16.5
2022-08-30T06:32:31.719Z,16.5
2022-08-30T06:34:07.091Z,16.5
2022-08-30T06:35:42.423Z,16.5
2022-08-30T06:37:18.780Z,16.5
2022-08-30T06:38:55.105Z,16.7
2022-08-30T06:40:31.439Z,16.7
2022-08-30T06:42:07.771Z,16.9
2022-08-30T06:43:44.099Z,16.9
2022-08-30T06:45:20.429Z,17.2
2022-08-30T06:46:56.773Z,17.3
2022-08-30T06:48:32.122Z,17.3
2022-08-30T06:50:07.465Z,17.4
2022-08-30T06:51:43.801Z,17.4
2022-08-30T06:53:20.131Z,17.6
2022-08-30T06:54:56.468Z,17.8
2022-08-30T06:56:32.793Z,17.6
2022-08-30T06:58:09.121Z,17.8
2022-08-30T06:59:45.446Z,18
2022-08-30T07:01:21.788Z,18
2022-08-30T07:02:58.123Z,18
2022-08-30T07:04:34.443Z,18.1
2022-08-30T07:06:10.770Z,18.4
2022-08-30T07:07:47.110Z,18.4
2022-08-30T07:09:23.453Z,18.5
2022-08-30T07:10:58.788Z,18.6
2022-08-30T07:12:35.118Z,18.4
2022-08-30T07:14:11.453Z,18.4
2022-08-30T07:15:47.797Z,18.5
2022-08-30T07:17:24.102Z,18.6
2022-08-30T07:19:00.430Z,18.4
2022-08-30T07:20:36.772Z,18.1
2022-08-30T07:22:12.122Z,18
2022-08-30T07:23:48.458Z,18.2
2022-08-30T07:25:23.810Z,18.3
2022-08-30T07:27:00.140Z,18.5
2022-08-30T07:28:35.489Z,18.7
2022-08-30T07:30:11.822Z,18.6
2022-08-30T07:31:48.150Z,18.4
2022-08-30T07:33:24.480Z,18.5
2022-08-30T07:35:00.839Z,18.6
2022-08-30T07:36:37.145Z,18.6
2022-08-30T07:38:13.482Z,18.5
2022-08-30T07:39:49.813Z,18.6
2022-08-30T07:41:26.135Z,18.8
2022-08-30T07:43:02.469Z,18.7
2022-08-30T07:44:38.799Z,18.7
2022-08-30T07:46:15.140Z,18.7
2022-08-30T07:47:51.459Z,18.6
2022-08-30T07:49:26.800Z,18.7
2022-08-30T07:51:03.141Z,18.8
2022-08-30T07:52:39.473Z,18.9
2022-08-30T07:54:15.805Z,19.1
2022-08-30T07:55:52.134Z,19.2
2022-08-30T07:57:28.459Z,19.3
2022-08-30T07:59:04.796Z,19.4
2022-08-30T08:00:41.123Z,19.4
2022-08-30T08:02:17.457Z,19.4
2022-08-30T08:03:53.784Z,19.2
2022-08-30T08:05:30.117Z,19.1
2022-08-30T08:07:06.448Z,19
2022-08-30T08:08:42.784Z,19
2022-08-30T08:10:19.107Z,19.1
2022-08-30T08:11:54.476Z,19.2
2022-08-30T08:13:30.781Z,19.4
2022-08-30T08:15:07.161Z,19.5
2022-08-30T08:16:43.446Z,19.5
2022-08-30T08:18:19.775Z,19.4
2022-08-30T08:19:56.116Z,19.3
2022-08-30T08:21:32.449Z,19.4
2022-08-30T08:23:08.767Z,19.5
2022-08-30T08:24:45.106Z,19.8
2022-08-30T08:26:21.447Z,20
2022-08-30T08:27:57.757Z,20.1
2022-08-30T08:29:34.095Z,20.1
2022-08-30T08:31:10.431Z,20.2
2022-08-30T08:32:46.758Z,20.1
2022-08-30T08:34:22.099Z,20.1
2022-08-30T08:35:58.451Z,20.2
2022-08-30T08:37:34.770Z,20
2022-08-30T08:39:11.091Z,19.8
2022-08-30T08:40:47.422Z,19.8
2022-08-30T08:42:23.764Z,19.7
2022-08-30T08:44:00.092Z,19.6
2022-08-30T08:45:36.410Z,19.6
2022-08-30T08:47:12.758Z,19.6
2022-08-30T08:48:49.074Z,19.5
2022-08-30T08:50:25.416Z,19.4
2022-08-30T08:52:01.761Z,19.3
2022-08-30T08:53:38.085Z,19.4
2022-08-30T08:55:13.434Z,19.5
2022-08-30T08:56:49.762Z,19.6
2022-08-30T08:58:26.083Z,19.6
2022-08-30T09:00:02.417Z,19.8
2022-08-30T09:01:38.800Z,19.9
2022-08-30T09:03:15.074Z,19.8
2022-08-30T09:04:51.407Z,19.8
2022-08-30T09:06:27.735Z,19.7
2022-08-30T09:08:04.074Z,19.8
2022-08-30T09:09:40.392Z,19.8
2022-08-30T09:11:16.724Z,19.9
2022-08-30T09:12:54.047Z,19.8
2022-08-30T09:14:29.954Z,19.8
2022-08-30T09:16:04.756Z,19.8
2022-08-30T09:17:41.065Z,19.9
2022-08-30T09:19:17.433Z,20.1
2022-08-30T09:20:53.788Z,20
2022-08-30T09:22:30.113Z,20.1
2022-08-30T09:24:06.390Z,20.2
2022-08-30T09:25:42.717Z,20.3
2022-08-30T09:27:19.065Z,20.5
2022-08-30T09:28:55.413Z,20.6
2022-08-30T09:30:31.707Z,20.7
2022-08-30T09:32:08.065Z,20.8
2022-08-30T09:33:44.413Z,20.8
2022-08-30T09:35:20.711Z,20.8
2022-08-30T09:36:56.094Z,20.9
2022-08-30T09:38:32.415Z,21
2022-08-30T09:40:08.752Z,20.8
2022-08-30T09:41:45.052Z,20.9
2022-08-30T09:43:21.416Z,21
2022-08-30T09:44:57.770Z,21.1
2022-08-30T09:46:34.060Z,21.1
2022-08-30T09:48:10.376Z,21.3
2022-08-30T09:49:46.746Z,21.5
2022-08-30T09:51:23.057Z,21.5
2022-08-30T09:52:59.393Z,21.3
2022-08-30T09:54:35.694Z,21.4
2022-08-30T09:56:12.038Z,21.6
2022-08-30T09:57:47.374Z,21.7
2022-08-30T09:59:23.742Z,21.3
2022-08-30T10:01:00.030Z,21
2022-08-30T10:02:36.357Z,20.8
2022-08-30T10:04:12.735Z,20.7
2022-08-30T10:05:49.056Z,20.8
2022-08-30T10:07:25.365Z,20.9
2022-08-30T10:09:01.699Z,21
2022-08-30T10:10:38.050Z,21
2022-08-30T10:12:14.365Z,21.1
2022-08-30T10:13:50.676Z,21.4
2022-08-30T10:15:27.039Z,21.4
2022-08-30T10:17:02.385Z,21.3
2022-08-30T10:18:38.728Z,21.2
2022-08-30T10:20:15.017Z,21.4
2022-08-30T10:21:51.367Z,21.5
2022-08-30T10:23:27.676Z,21.5
2022-08-30T10:25:04.063Z,21.6
2022-08-30T10:26:40.376Z,21.7
2022-08-30T10:28:16.679Z,22
2022-08-30T10:29:52.996Z,22
2022-08-30T10:31:29.328Z,22.2
2022-08-30T10:33:05.667Z,22.2
2022-08-30T10:34:42.006Z,22.2
2022-08-30T10:36:18.321Z,22.3
2022-08-30T10:37:54.703Z,22.2
2022-08-30T10:39:30.037Z,22.1
2022-08-30T10:41:06.374Z,22.1
2022-08-30T10:42:42.679Z,22
2022-08-30T10:44:19.032Z,22
2022-08-30T10:45:55.326Z,22.1
2022-08-30T10:47:31.655Z,22.2
2022-08-30T10:49:07.986Z,22.5
2022-08-30T10:50:44.330Z,22.6
2022-08-30T10:52:20.674Z,22.7
2022-08-30T10:53:56.016Z,22.8
2022-08-30T10:55:32.355Z,23
2022-08-30T10:57:08.697Z,23
2022-08-30T10:58:44.044Z,23.1
2022-08-30T11:00:20.368Z,23.3
2022-08-30T11:01:56.690Z,23.3
2022-08-30T11:03:33.026Z,23.1
2022-08-30T11:05:08.369Z,23
2022-08-30T11:06:43.760Z,23
2022-08-30T11:08:20.042Z,23.1
2022-08-30T11:09:56.411Z,23.2
2022-08-30T11:11:32.742Z,23.3
2022-08-30T11:13:09.037Z,23.3
2022-08-30T11:14:45.411Z,23.1
2022-08-30T11:16:21.721Z,23.2
2022-08-30T11:17:58.065Z,23.1
2022-08-30T11:19:34.359Z,22.8
2022-08-30T11:21:10.711Z,22.9
2022-08-30T11:22:47.041Z,22.8
2022-08-30T11:24:23.344Z,22.7
2022-08-30T11:25:59.712Z,22.8
2022-08-30T11:27:36.013Z,22.8
2022-08-30T11:29:11.372Z,22.8
2022-08-30T11:30:47.711Z,22.8
2022-08-30T11:32:24.022Z,22.8
2022-08-30T11:34:00.375Z,22.9
2022-08-30T11:35:36.676Z,22.8
2022-08-30T11:37:13.096Z,22.8
2022-08-30T11:38:48.464Z,22.8
2022-08-30T11:40:23.825Z,22.7
2022-08-30T11:42:00.110Z,22.7
2022-08-30T11:43:36.437Z,22.8
2022-08-30T11:45:12.788Z,22.9
2022-08-30T11:46:49.148Z,23
2022-08-30T11:48:25.448Z,23
2022-08-30T11:50:01.757Z,23.1
2022-08-30T11:51:38.119Z,23.1
2022-08-30T11:53:14.416Z,23
2022-08-30T11:54:50.768Z,23
2022-08-30T11:56:27.097Z,23
2022-08-30T11:58:03.414Z,23.1
2022-08-30T11:59:39.798Z,23.1
2022-08-30T12:01:15.116Z,23.2
2022-08-30T12:02:51.461Z,23.2
2022-08-30T12:04:27.784Z,23.2
2022-08-30T12:06:04.082Z,23.3
2022-08-30T12:07:40.416Z,23.3
2022-08-30T12:09:16.784Z,23.3
2022-08-30T12:10:53.073Z,23.2
2022-08-30T12:12:28.465Z,23.1
2022-08-30T12:14:03.801Z,23.1
2022-08-30T12:15:40.133Z,23
2022-08-30T12:17:16.496Z,23.2
2022-08-30T12:18:52.771Z,23.2
2022-08-30T12:20:29.141Z,23.3
2022-08-30T12:22:04.498Z,23.3
2022-08-30T12:23:40.819Z,23.3
2022-08-30T12:25:17.122Z,23.3
2022-08-30T12:26:52.499Z,23.3
2022-08-30T12:28:28.807Z,23.2
2022-08-30T12:30:05.133Z,23.3
2022-08-30T12:31:41.466Z,23.3
2022-08-30T12:33:17.793Z,23.1
2022-08-30T12:34:54.148Z,23.1
2022-08-30T12:36:30.462Z,23.2
2022-08-30T12:38:06.811Z,23.2
2022-08-30T12:39:43.166Z,23.1
2022-08-30T12:41:19.501Z,23.1
2022-08-30T12:42:55.814Z,23.3
2022-08-30T12:44:32.132Z,23.5
2022-08-30T12:46:08.474Z,23.6
2022-08-30T12:47:43.829Z,23.6
2022-08-30T12:49:20.156Z,23.7
2022-08-30T12:50:56.484Z,23.7
2022-08-30T12:52:32.792Z,23.8
2022-08-30T12:54:09.131Z,24
2022-08-30T12:55:45.484Z,24
2022-08-30T12:57:21.771Z,23.8
2022-08-30T12:58:58.137Z,23.8
2022-08-30T13:00:34.432Z,23.8
2022-08-30T13:02:10.754Z,23.6
2022-08-30T13:03:47.104Z,23.6
2022-08-30T13:05:23.460Z,23.7
2022-08-30T13:06:59.760Z,23.6
2022-08-30T13:08:35.136Z,23.5
2022-08-30T13:10:11.447Z,23.4
2022-08-30T13:11:47.762Z,23.5
2022-08-30T13:13:24.090Z,23.6
2022-08-30T13:15:00.422Z,23.5
2022-08-30T13:16:36.760Z,23.5
2022-08-30T13:18:13.087Z,23.7
2022-08-30T13:19:49.453Z,23.7
2022-08-30T13:21:25.758Z,23.7
2022-08-30T13:23:02.081Z,23.6
2022-08-30T13:24:38.411Z,23.7
2022-08-30T13:26:14.741Z,23.6
2022-08-30T13:27:51.102Z,23.4
2022-08-30T13:29:26.428Z,23.4
2022-08-30T13:31:02.767Z,23.5
2022-08-30T13:32:39.077Z,23.5
2022-08-30T13:34:15.415Z,23.6
2022-08-30T13:35:51.771Z,23.5
2022-08-30T13:37:28.072Z,23.4
2022-08-30T13:39:04.433Z,23.5
2022-08-30T13:40:40.733Z,23.7
2022-08-30T13:42:17.075Z,23.7
2022-08-30T13:43:53.394Z,23.7
2022-08-30T13:45:29.728Z,23.7
2022-08-30T13:47:06.061Z,23.7
2022-08-30T13:48:42.385Z,23.7
2022-08-30T13:50:18.717Z,23.6
2022-08-30T13:51:55.061Z,23.7
2022-08-30T13:53:30.405Z,23.7
2022-08-30T13:55:06.732Z,23.7
2022-08-30T13:56:43.063Z,23.7
2022-08-30T13:58:19.392Z,23.7
2022-08-30T13:59:55.716Z,23.8
2022-08-30T14:01:32.045Z,23.9
2022-08-30T14:03:08.386Z,23.8
2022-08-30T14:04:44.714Z,23.8
2022-08-30T14:06:21.045Z,23.8
2022-08-30T14:07:57.364Z,23.8
2022-08-30T14:09:33.699Z,23.9
2022-08-30T14:11:10.024Z,23.9
2022-08-30T14:12:46.364Z,24
2022-08-30T14:14:21.707Z,23.9
2022-08-30T14:15:58.059Z,23.7
2022-08-30T14:17:34.372Z,23.7
2022-08-30T14:19:10.706Z,23.8
2022-08-30T14:20:47.037Z,23.9
2022-08-30T14:22:23.366Z,23.9
2022-08-30T14:23:59.698Z,23.8
2022-08-30T14:25:36.027Z,23.9
2022-08-30T14:27:12.353Z,24
2022-08-30T14:28:47.713Z,24
2022-08-30T14:30:23.059Z,24
2022-08-30T14:31:59.392Z,24
2022-08-30T14:33:34.762Z,23.8
2022-08-30T14:35:11.082Z,23.8
2022-08-30T14:36:47.413Z,23.9
2022-08-30T14:38:22.754Z,23.9
2022-08-30T14:39:59.083Z,23.8
2022-08-30T14:41:35.418Z,23.9
2022-08-30T14:43:11.754Z,23.8
2022-08-30T14:44:48.081Z,23.8
2022-08-30T14:46:24.410Z,23.9
2022-08-30T14:48:00.743Z,23.9
2022-08-30T14:49:37.080Z,23.9
2022-08-30T14:51:13.408Z,23.9
2022-08-30T14:52:49.739Z,23.9
2022-08-30T14:54:26.069Z,23.8
2022-08-30T14:56:02.395Z,23.9
2022-08-30T14:57:38.721Z,23.9
2022-08-30T14:59:15.081Z,23.9
2022-08-30T15:00:50.401Z,23.9
2022-08-30T15:02:26.733Z,23.9
2022-08-30T15:04:03.083Z,23.9
2022-08-30T15:05:39.400Z,23.8
2022-08-30T15:07:15.730Z,23.8
2022-08-30T15:08:52.086Z,23.9
2022-08-30T15:10:27.420Z,23.9
2022-08-30T15:12:02.771Z,23.9
2022-08-30T15:13:39.097Z,23.8
2022-08-30T15:15:15.439Z,23.9
2022-08-30T15:16:51.767Z,23.9
2022-08-30T15:18:28.097Z,23.8
2022-08-30T15:20:04.448Z,23.9
2022-08-30T15:21:40.748Z,23.8
2022-08-30T15:23:17.084Z,23.8
2022-08-30T15:24:53.403Z,23.8
2022-08-30T15:26:29.758Z,23.8
2022-08-30T15:28:06.101Z,23.8
2022-08-30T15:29:42.405Z,23.8
2022-08-30T15:31:18.743Z,23.8
2022-08-30T15:32:55.090Z,23.8
2022-08-30T15:34:31.397Z,23.9
2022-08-30T15:36:07.732Z,23.9
2022-08-30T15:37:43.076Z,23.9
2022-08-30T15:39:18.456Z,23.8
2022-08-30T15:40:54.770Z,23.8
2022-08-30T15:42:31.094Z,23.8
2022-08-30T15:44:07.445Z,23.8
2022-08-30T15:45:43.759Z,23.8
2022-08-30T15:47:20.129Z,23.8
2022-08-30T15:48:56.425Z,23.8
2022-08-30T15:50:32.759Z,23.8
2022-08-30T15:52:09.078Z,23.8
2022-08-30T15:53:45.428Z,23.8
2022-08-30T15:55:21.743Z,23.8
2022-08-30T15:56:58.073Z,23.8
2022-08-30T15:58:34.406Z,23.7
2022-08-30T16:00:09.751Z,23.7
2022-08-30T16:01:46.087Z,23.7
2022-08-30T16:03:22.436Z,23.6
2022-08-30T16:04:58.749Z,23.7
2022-08-30T16:06:35.089Z,23.7
2022-08-30T16:08:11.416Z,23.7
2022-08-30T16:09:47.737Z,23.7
2022-08-30T16:11:24.067Z,23.6
2022-08-30T16:13:00.401Z,23.6
2022-08-30T16:14:36.725Z,23.5
2022-08-30T16:16:13.069Z,23.5
2022-08-30T16:17:49.420Z,23.5
2022-08-30T16:19:25.719Z,23.5
2022-08-30T16:21:02.047Z,23.5
2022-08-30T16:22:38.374Z,23.5
2022-08-30T16:24:13.741Z,23.5
2022-08-30T16:25:50.063Z,23.4
2022-08-30T16:27:26.403Z,23.4
2022-08-30T16:29:02.732Z,23.5
2022-08-30T16:30:39.052Z,23.4
2022-08-30T16:32:15.382Z,23.4
2022-08-30T16:33:51.725Z,23.3
2022-08-30T16:35:28.056Z,23.3
2022-08-30T16:37:04.390Z,23.3
2022-08-30T16:38:40.705Z,23.3
2022-08-30T16:40:17.065Z,23.3
2022-08-30T16:41:53.405Z,23.4
2022-08-30T16:43:29.725Z,23.4
2022-08-30T16:45:05.061Z,23.3
2022-08-30T16:46:41.386Z,23.3
2022-08-30T16:48:17.730Z,23.3
2022-08-30T16:49:54.040Z,23.3
2022-08-30T16:51:30.367Z,23.3
2022-08-30T16:53:06.702Z,23.2
2022-08-30T16:54:43.037Z,23.2
2022-08-30T16:56:19.366Z,23.2
2022-08-30T16:57:55.698Z,23.2
2022-08-30T16:59:32.032Z,23.2
2022-08-30T17:01:08.353Z,23.2
2022-08-30T17:02:44.679Z,23.2
2022-08-30T17:04:21.032Z,23.1
2022-08-30T17:05:57.399Z,23.1
2022-08-30T17:07:32.744Z,23
2022-08-30T17:09:09.067Z,23.1
2022-08-30T17:10:45.356Z,23
2022-08-30T17:12:21.736Z,23
2022-08-30T17:13:58.017Z,23
2022-08-30T17:15:34.348Z,23
2022-08-30T17:17:10.686Z,23
2022-08-30T17:18:47.070Z,23
2022-08-30T17:20:23.346Z,22.9
2022-08-30T17:21:59.683Z,22.9
2022-08-30T17:23:36.030Z,22.9
2022-08-30T17:25:12.341Z,22.9
2022-08-30T17:26:48.671Z,22.8
2022-08-30T17:28:25.014Z,22.8
2022-08-30T17:30:00.342Z,22.8
2022-08-30T17:31:36.686Z,22.8
2022-08-30T17:33:13.003Z,22.8
2022-08-30T17:34:49.349Z,22.7
2022-08-30T17:36:25.664Z,22.7
2022-08-30T17:38:02.044Z,22.7
2022-08-30T17:39:38.362Z,22.7
2022-08-30T17:41:14.692Z,22.7
2022-08-30T17:42:51.005Z,22.7
2022-08-30T17:44:27.319Z,22.6
2022-08-30T17:46:03.659Z,22.6
2022-08-30T17:47:40.005Z,22.5
2022-08-30T17:49:16.309Z,22.5
2022-08-30T17:50:52.682Z,22.5
2022-08-30T17:52:29.027Z,22.5
2022-08-30T17:54:04.349Z,22.4
2022-08-30T17:55:40.706Z,22.4
2022-08-30T17:57:17.018Z,22.4
2022-08-30T17:58:53.310Z,22.4
2022-08-30T18:00:29.652Z,22.3
2022-08-30T18:02:05.024Z,22.3
2022-08-30T18:03:40.357Z,22.3
2022-08-30T18:05:16.674Z,22.3
2022-08-30T18:06:53.020Z,22.2
2022-08-30T18:08:29.340Z,22.2
2022-08-30T18:10:05.665Z,22.2
2022-08-30T18:11:42.043Z,22.2
2022-08-30T18:13:18.334Z,22.1
2022-08-30T18:14:54.661Z,22.1
2022-08-30T18:16:30.029Z,22.1
2022-08-30T18:18:06.455Z,22.1
2022-08-30T18:19:41.698Z,22
2022-08-30T18:21:18.068Z,22
2022-08-30T18:22:54.361Z,22
2022-08-30T18:24:30.724Z,21.9
2022-08-30T18:26:07.033Z,21.9
2022-08-30T18:27:43.346Z,21.9
2022-08-30T18:29:19.686Z,21.9
2022-08-30T18:30:56.030Z,21.8
2022-08-30T18:32:32.385Z,21.8
2022-08-30T18:34:08.669Z,21.8
2022-08-30T18:35:45.063Z,21.8
2022-08-30T18:37:21.352Z,21.8
2022-08-30T18:38:57.690Z,21.8
2022-08-30T18:40:33.996Z,21.7
2022-08-30T18:42:10.327Z,21.7
2022-08-30T18:43:46.675Z,21.7
2022-08-30T18:45:22.043Z,21.7
2022-08-30T18:47:00.138Z,21.6
2022-08-30T18:48:34.666Z,21.6
2022-08-30T18:50:10.025Z,21.6
2022-08-30T18:51:46.355Z,21.5
2022-08-30T18:53:22.687Z,21.5
2022-08-30T18:54:58.075Z,21.5
2022-08-30T18:56:34.359Z,21.5
2022-08-30T18:58:10.691Z,21.5
2022-08-30T18:59:47.058Z,21.4
2022-08-30T19:01:23.355Z,21.4
2022-08-30T19:02:59.679Z,21.4
2022-08-30T19:04:36.013Z,21.4
2022-08-30T19:06:11.380Z,21.4
2022-08-30T19:07:47.697Z,21.4
2022-08-30T19:09:23.102Z,21.3
2022-08-30T19:10:59.401Z,21.3
2022-08-30T19:12:35.756Z,21.3
2022-08-30T19:14:12.043Z,21.3
2022-08-30T19:15:48.419Z,21.3
2022-08-30T19:17:24.712Z,21.3
2022-08-30T19:19:01.033Z,21.2
2022-08-30T19:20:37.363Z,21.2
2022-08-30T19:22:13.693Z,21.2
2022-08-30T19:23:50.090Z,21.2
2022-08-30T19:25:26.359Z,21.2
2022-08-30T19:27:02.688Z,21.2
2022-08-30T19:28:39.018Z,21.1
2022-08-30T19:30:14.374Z,21.1
2022-08-30T19:31:50.739Z,21.1
2022-08-30T19:33:27.047Z,21.1
2022-08-30T19:35:03.354Z,21.1
2022-08-30T19:36:39.695Z,21
2022-08-30T19:38:16.028Z,21
2022-08-30T19:39:52.365Z,20.9
2022-08-30T19:41:28.693Z,20.9
2022-08-30T19:43:05.022Z,20.9
2022-08-30T19:44:41.355Z,20.9
2022-08-30T19:46:17.713Z,20.9
2022-08-30T19:47:54.004Z,20.9
2022-08-30T19:49:30.375Z,20.9
2022-08-30T19:51:05.703Z,20.9
2022-08-30T19:52:42.074Z,20.8
2022-08-30T19:54:18.348Z,20.8
2022-08-30T19:55:54.679Z,20.8
2022-08-30T19:57:31.015Z,20.8
2022-08-30T19:59:07.342Z,20.8
2022-08-30T20:00:43.666Z,20.8
2022-08-30T20:02:20.009Z,20.8
2022-08-30T20:03:56.340Z,20.8
2022-08-30T20:05:32.659Z,20.8
2022-08-30T20:07:09.002Z,20.8
2022-08-30T20:08:45.336Z,20.7
2022-08-30T20:10:21.664Z,20.7
2022-08-30T20:11:57.992Z,20.7
2022-08-30T20:13:33.336Z,20.7
2022-08-30T20:15:09.669Z,20.7
2022-08-30T20:16:46.004Z,20.6
2022-08-30T20:18:22.326Z,20.6
2022-08-30T20:19:58.659Z,20.6
2022-08-30T20:21:34.982Z,20.5
2022-08-30T20:23:11.331Z,20.5
2022-08-30T20:24:47.665Z,20.5
2022-08-30T20:26:23.977Z,20.5
2022-08-30T20:28:00.309Z,20.5
2022-08-30T20:29:35.674Z,20.5
2022-08-30T20:31:11.021Z,20.5
2022-08-30T20:32:47.347Z,20.5
2022-08-30T20:34:22.705Z,20.5
2022-08-30T20:35:59.035Z,20.4
2022-08-30T20:37:35.370Z,20.4
2022-08-30T20:39:11.703Z,20.4
2022-08-30T20:40:47.049Z,20.4
2022-08-30T20:42:23.373Z,20.4
2022-08-30T20:43:59.718Z,20.4
2022-08-30T20:45:36.035Z,20.3
2022-08-30T20:47:12.381Z,20.3
2022-08-30T20:48:48.719Z,20.3
2022-08-30T20:50:25.040Z,20.3
2022-08-30T20:52:01.381Z,20.4
2022-08-30T20:53:37.695Z,20.3
2022-08-30T20:55:14.027Z,20.3
2022-08-30T20:56:50.356Z,20.3
2022-08-30T20:58:26.688Z,20.3
2022-08-30T21:00:03.024Z,20.2
2022-08-30T21:01:38.369Z,20.2
2022-08-30T21:03:14.718Z,20.2
2022-08-30T21:04:51.025Z,20.2
2022-08-30T21:06:27.361Z,20.2
2022-08-30T21:08:03.687Z,20.1
2022-08-30T21:09:40.038Z,20.1
2022-08-30T21:11:16.354Z,20.1
2022-08-30T21:12:52.690Z,20.1
2022-08-30T21:14:29.011Z,20.1
2022-08-30T21:16:05.351Z,20.1
2022-08-30T21:17:41.683Z,20.1
2022-08-30T21:19:18.011Z,20.1
2022-08-30T21:20:54.333Z,20.1
2022-08-30T21:22:30.676Z,20.1
2022-08-30T21:24:07.009Z,20.1
2022-08-30T21:25:42.342Z,20
2022-08-30T21:27:18.671Z,20